createdAt,value
2022-11-30T00:02:05.606Z,2.00
2022-11-30T00:05:08.782Z,2.03
2022-11-30T00:08:11.500Z,2.11
2022-11-30T00:11:17.956Z,2.17
2022-11-30T00:14:20.618Z,2.12
2022-11-30T00:17:23.545Z,2.21
2022-11-30T00:20:28.859Z,2.18
2022-11-30T00:23:36.596Z,2.16
2022-11-30T00:26:39.135Z,2.21
2022-11-30T00:29:42.234Z,2.22
2022-11-30T00:32:44.892Z,2.22
2022-11-30T00:35:56.533Z,2.30
2022-11-30T00:38:59.212Z,2.33
2022-11-30T00:42:02.257Z,2.33
2022-11-30T00:45:05.376Z,2.35
2022-11-30T00:48:08.426Z,2.45
2022-11-30T00:51:12.546Z,2.33
2022-11-30T00:54:15.426Z,2.30
2022-11-30T00:57:18.135Z,2.32
2022-11-30T01:00:21.205Z,2.30
2022-11-30T01:03:24.013Z,2.37
2022-11-30T01:06:28.194Z,2.48
2022-11-30T01:09:30.832Z,2.39
2022-11-30T01:12:33.765Z,2.38
2022-11-30T01:15:43.432Z,2.38
2022-11-30T01:18:47.578Z,2.39
2022-11-30T01:21:50.263Z,2.37
2022-11-30T01:24:53.240Z,2.39
2022-11-30T01:27:56.269Z,2.36
2022-11-30T01:31:01.222Z,2.33
2022-11-30T01:34:04.058Z,2.34
2022-11-30T01:37:06.993Z,2.36
2022-11-30T01:40:11.890Z,2.29
2022-11-30T01:43:20.227Z,2.32
2022-11-30T01:46:28.530Z,2.31
2022-11-30T01:49:36.481Z,2.34
2022-11-30T01:52:43.206Z,2.30
2022-11-30T01:55:49.270Z,2.28
2022-11-30T01:58:51.873Z,2.38
2022-11-30T02:01:55.475Z,2.32
2022-11-30T02:04:59.494Z,2.30
2022-11-30T02:08:02.280Z,2.31
2022-11-30T02:11:08.337Z,2.30
2022-11-30T02:14:17.916Z,2.30
2022-11-30T02:17:42.512Z,2.30
2022-11-30T02:21:03.776Z,2.30
2022-11-30T02:24:28.125Z,2.30
2022-11-30T02:28:03.936Z,2.31
2022-11-30T02:31:11.517Z,2.29
2022-11-30T02:34:17.586Z,2.33
2022-11-30T02:37:22.101Z,2.31
2022-11-30T02:40:24.981Z,2.36
2022-11-30T02:43:30.727Z,2.38
2022-11-30T02:46:53.233Z,2.37
2022-11-30T02:50:08.257Z,2.38
2022-11-30T02:53:10.969Z,2.39
2022-11-30T02:56:13.939Z,2.44
2022-11-30T02:59:16.775Z,2.37
2022-11-30T03:02:19.973Z,2.36
2022-11-30T03:05:22.737Z,2.36
2022-11-30T03:08:25.708Z,2.37
2022-11-30T03:11:28.241Z,2.39
2022-11-30T03:14:31.105Z,2.39
2022-11-30T03:17:33.745Z,2.39
2022-11-30T03:20:43.590Z,2.44
2022-11-30T03:23:46.243Z,2.46
2022-11-30T03:26:49.261Z,2.49
2022-11-30T03:29:51.961Z,2.48
2022-11-30T03:32:54.858Z,2.48
2022-11-30T03:36:06.306Z,2.58
2022-11-30T03:39:09.657Z,2.57
2022-11-30T03:42:12.269Z,2.62
2022-11-30T03:45:15.205Z,2.55
2022-11-30T03:48:17.963Z,2.69
2022-11-30T03:51:21.191Z,2.76
2022-11-30T03:54:23.779Z,2.72
2022-11-30T03:57:26.663Z,2.70
2022-11-30T04:00:29.337Z,2.78
2022-11-30T04:03:33.176Z,2.68
2022-11-30T04:06:35.845Z,2.77
2022-11-30T04:09:39.370Z,2.84
2022-11-30T04:12:42.047Z,2.92
2022-11-30T04:15:47.615Z,2.89
2022-11-30T04:18:50.304Z,2.98
2022-11-30T04:21:53.279Z,2.79
2022-11-30T04:24:55.937Z,2.76
2022-11-30T04:28:02.364Z,2.66
2022-11-30T04:31:05.219Z,2.69
2022-11-30T04:34:08.070Z,2.72
2022-11-30T04:37:10.724Z,2.69
2022-11-30T04:40:14.320Z,2.76
2022-11-30T04:43:20.057Z,2.74
2022-11-30T04:46:22.991Z,2.78
2022-11-30T04:49:25.688Z,2.78
2022-11-30T04:52:28.596Z,2.77
2022-11-30T04:55:31.671Z,2.80
2022-11-30T04:58:35.012Z,2.72
2022-11-30T05:01:37.691Z,2.73
2022-11-30T05:04:40.770Z,2.81
2022-11-30T05:07:43.505Z,2.83
2022-11-30T05:10:53.110Z,2.86
2022-11-30T05:13:55.985Z,2.80
2022-11-30T05:16:59.040Z,2.76
2022-11-30T05:20:02.318Z,2.80
2022-11-30T05:23:05.349Z,2.80
2022-11-30T05:26:07.909Z,3.03
2022-11-30T05:29:10.804Z,2.82
2022-11-30T05:32:13.390Z,3.00
2022-11-30T05:35:16.369Z,2.98
2022-11-30T05:38:19.032Z,3.03
2022-11-30T05:41:22.123Z,3.08
2022-11-30T05:44:24.732Z,3.03
2022-11-30T05:47:27.705Z,3.06
2022-11-30T05:50:30.564Z,3.26
2022-11-30T05:53:33.688Z,3.17
2022-11-30T05:56:36.872Z,3.22
2022-11-30T05:59:39.945Z,2.96
2022-11-30T06:02:42.735Z,2.99
2022-11-30T06:05:45.692Z,2.94
2022-11-30T06:08:49.658Z,2.86
2022-11-30T06:11:52.552Z,2.76
2022-11-30T06:14:55.343Z,2.73
2022-11-30T06:17:58.335Z,2.74
2022-11-30T06:21:10.226Z,2.73
2022-11-30T06:24:14.638Z,2.77
2022-11-30T06:27:17.229Z,2.70
2022-11-30T06:30:28.006Z,2.65
2022-11-30T06:33:41.568Z,2.71
2022-11-30T06:36:45.468Z,2.72
2022-11-30T06:43:13.211Z,2.73
2022-11-30T06:46:18.941Z,2.73
2022-11-30T06:49:23.814Z,2.70
2022-11-30T06:52:33.795Z,2.71
2022-11-30T06:55:53.692Z,2.76
2022-11-30T06:59:07.758Z,2.76
2022-11-30T07:02:18.336Z,2.73
2022-11-30T07:05:24.789Z,2.78
2022-11-30T07:08:28.370Z,2.79
2022-11-30T07:11:32.573Z,2.81
2022-11-30T07:14:35.529Z,2.86
2022-11-30T07:17:38.218Z,3.00
2022-11-30T07:20:41.285Z,2.95
2022-11-30T07:24:02.651Z,3.03
2022-11-30T07:27:05.754Z,2.95
2022-11-30T07:30:09.426Z,2.98
2022-11-30T07:33:12.502Z,3.02
2022-11-30T07:36:17.302Z,2.99
2022-11-30T07:39:20.344Z,3.03
2022-11-30T07:42:23.164Z,3.11
2022-11-30T07:45:26.150Z,3.20
2022-11-30T07:48:29.124Z,3.22
2022-11-30T07:51:32.881Z,3.29
2022-11-30T07:54:35.582Z,3.25
2022-11-30T07:57:38.630Z,3.33
2022-11-30T08:00:41.638Z,3.28
2022-11-30T08:15:18.809Z,3.45
2022-11-30T08:18:13.249Z,3.48
2022-11-30T08:21:18.213Z,3.66
2022-11-30T08:24:21.338Z,3.67
2022-11-30T08:27:24.152Z,3.79
2022-11-30T08:30:29.405Z,3.89
2022-11-30T08:33:36.918Z,3.96
2022-11-30T08:36:41.057Z,4.07
2022-11-30T08:39:43.849Z,4.02
2022-11-30T08:42:47.034Z,4.13
2022-11-30T08:45:54.243Z,4.10
2022-11-30T08:49:19.824Z,4.13
2022-11-30T08:52:23.113Z,4.24
2022-11-30T08:55:26.100Z,4.45
2022-11-30T08:58:34.800Z,4.50
2022-11-30T09:03:26.657Z,5.12
2022-11-30T09:06:30.705Z,5.12
2022-11-30T09:09:33.452Z,4.53
2022-11-30T09:12:40.413Z,4.47
2022-11-30T09:15:43.241Z,4.62
2022-11-30T09:19:52.712Z,5.17
2022-11-30T09:22:59.650Z,5.17
2022-11-30T09:26:06.143Z,4.43
2022-11-30T09:29:09.362Z,4.65
2022-11-30T09:32:15.109Z,4.64
2022-11-30T09:35:18.179Z,4.53
2022-11-30T09:38:20.893Z,4.87
2022-11-30T09:41:49.005Z,4.64
2022-11-30T09:44:55.751Z,4.79
2022-11-30T09:48:11.330Z,4.83
2022-11-30T09:51:31.198Z,4.72
2022-11-30T09:54:43.673Z,4.71
2022-11-30T09:57:50.735Z,4.69
2022-11-30T10:00:53.603Z,4.75
2022-11-30T10:03:58.246Z,4.87
2022-11-30T10:07:30.182Z,4.83
2022-11-30T10:10:47.026Z,5.00
2022-11-30T10:14:17.791Z,4.99
2022-11-30T10:17:56.537Z,4.93
2022-11-30T10:21:21.045Z,4.99
2022-11-30T10:24:53.546Z,5.12
2022-11-30T10:28:24.340Z,5.13
2022-11-30T10:31:48.990Z,5.20
2022-11-30T10:35:01.932Z,5.18
2022-11-30T10:38:15.177Z,5.12
2022-11-30T10:41:23.937Z,5.31
2022-11-30T10:44:32.145Z,5.33
2022-11-30T10:47:53.321Z,5.15
2022-11-30T10:50:57.161Z,5.28
2022-11-30T10:54:01.565Z,5.47
2022-11-30T10:57:06.676Z,5.46
2022-11-30T11:00:15.404Z,5.61
2022-11-30T11:03:26.478Z,5.84
2022-11-30T11:06:29.266Z,5.87
2022-11-30T11:09:36.912Z,5.80
2022-11-30T11:12:39.749Z,5.92
2022-11-30T11:15:59.868Z,5.96
2022-11-30T11:19:03.012Z,5.95
2022-11-30T11:22:23.182Z,6.04
2022-11-30T11:25:43.205Z,6.00
2022-11-30T11:28:47.439Z,5.95
2022-11-30T11:31:50.024Z,6.00
2022-11-30T11:34:53.963Z,6.00
2022-11-30T11:37:56.673Z,5.97
2022-11-30T11:41:02.640Z,6.02
2022-11-30T11:44:08.558Z,5.89
2022-11-30T11:47:59.793Z,5.86
2022-11-30T11:51:37.338Z,5.74
2022-11-30T11:55:06.052Z,5.65
2022-11-30T11:58:51.137Z,5.84
2022-11-30T12:03:04.887Z,5.85
2022-11-30T12:07:18.631Z,5.87
2022-11-30T12:11:24.245Z,5.84
2022-11-30T12:14:27.873Z,5.82
2022-11-30T12:17:48.135Z,5.79
2022-11-30T12:20:56.473Z,5.85
2022-11-30T12:24:16.040Z,5.77
2022-11-30T12:27:25.311Z,5.70
2022-11-30T12:30:59.281Z,5.63
2022-11-30T12:38:53.998Z,5.71
2022-11-30T12:42:36.922Z,5.66
2022-11-30T12:45:50.721Z,5.55
2022-11-30T12:49:26.201Z,5.59
2022-11-30T12:52:41.573Z,5.62
2022-11-30T13:10:48.667Z,5.54
2022-11-30T13:14:22.733Z,5.48
2022-11-30T13:17:26.825Z,5.39
2022-11-30T13:21:08.300Z,5.21
2022-11-30T13:28:17.002Z,5.24
2022-11-30T13:31:39.841Z,5.31
2022-11-30T13:35:18.351Z,5.31
2022-11-30T13:39:02.087Z,5.37
2022-11-30T14:40:30.715Z,4.36
2022-11-30T14:43:33.743Z,4.49
2022-11-30T14:46:44.669Z,4.49
2022-11-30T14:49:52.135Z,4.61
2022-11-30T15:26:12.908Z,4.30
2022-11-30T15:29:30.442Z,4.03
2022-11-30T15:32:58.257Z,3.90
2022-11-30T15:36:32.900Z,3.81
2022-11-30T15:40:03.686Z,3.84
2022-11-30T15:43:23.892Z,3.98
2022-11-30T15:46:46.344Z,4.11
2022-11-30T15:49:55.262Z,3.75
2022-11-30T15:53:33.851Z,3.69
2022-11-30T15:56:37.047Z,3.58
2022-11-30T16:00:06.397Z,3.52
2022-11-30T16:03:11.937Z,3.79
2022-11-30T16:06:19.465Z,3.53
2022-11-30T16:09:35.992Z,3.33
2022-11-30T16:12:39.897Z,3.32
2022-11-30T16:15:53.111Z,2.97
2022-11-30T16:19:00.072Z,3.31
2022-11-30T16:22:14.832Z,3.10
2022-11-30T16:25:23.460Z,2.87
2022-11-30T16:29:06.380Z,3.13
2022-11-30T16:32:17.986Z,2.98
2022-11-30T16:35:59.489Z,2.92
2022-11-30T16:39:06.684Z,2.87
2022-11-30T16:42:12.871Z,2.85
2022-11-30T16:45:37.474Z,2.74
2022-11-30T16:48:45.924Z,2.76
2022-11-30T16:51:52.225Z,2.78
2022-11-30T16:55:01.047Z,2.74
2022-11-30T16:58:04.941Z,2.76
2022-11-30T17:01:48.776Z,2.78
2022-11-30T17:04:51.504Z,2.74
2022-11-30T17:08:22.578Z,2.74
2022-11-30T17:11:33.855Z,2.79
2022-11-30T17:14:58.605Z,2.85
2022-11-30T17:18:09.706Z,2.89
2022-11-30T17:21:18.039Z,2.87
2022-11-30T17:25:00.560Z,2.94
2022-11-30T17:28:07.426Z,2.74
2022-11-30T17:31:30.128Z,2.82
2022-11-30T17:35:15.118Z,2.87
2022-11-30T17:38:37.207Z,2.86
2022-11-30T17:41:48.181Z,2.85
2022-11-30T17:45:24.836Z,2.82
2022-11-30T17:48:37.738Z,2.75
2022-11-30T17:51:44.660Z,2.77
2022-11-30T18:48:03.172Z,2.68
2022-11-30T18:51:15.227Z,2.70
2022-11-30T18:54:19.249Z,2.76
2022-11-30T18:57:22.305Z,2.79
2022-11-30T19:00:25.084Z,2.76
2022-11-30T19:03:28.211Z,2.83
2022-11-30T19:06:34.847Z,2.84
2022-11-30T19:09:37.992Z,2.81
2022-11-30T19:12:49.041Z,2.99
2022-11-30T19:15:52.234Z,2.93
2022-11-30T19:18:56.092Z,2.76
2022-11-30T19:21:58.936Z,2.62
2022-11-30T19:25:01.737Z,2.65
2022-11-30T19:28:07.833Z,2.62
2022-11-30T19:31:14.387Z,2.60
2022-11-30T19:34:17.566Z,2.62
2022-11-30T19:37:20.410Z,2.63
2022-11-30T19:40:26.845Z,2.64
2022-11-30T19:43:29.687Z,2.71
2022-11-30T19:46:35.031Z,2.72
2022-11-30T19:49:37.750Z,2.68
2022-11-30T19:53:01.769Z,2.72
2022-11-30T19:56:06.368Z,2.87
2022-11-30T19:59:09.357Z,2.87
2022-11-30T20:05:56.881Z,2.98
2022-11-30T20:09:00.533Z,2.98
2022-11-30T20:12:03.571Z,3.00
2022-11-30T20:15:09.812Z,2.97
2022-11-30T20:18:15.749Z,2.99
2022-11-30T20:21:24.318Z,2.96
2022-11-30T20:24:27.687Z,2.92
2022-11-30T20:27:31.927Z,2.96
2022-11-30T20:30:34.724Z,3.00
2022-11-30T20:33:38.401Z,3.29
2022-11-30T20:36:41.367Z,3.43
2022-11-30T20:39:47.053Z,3.42
2022-11-30T20:43:31.347Z,3.36
2022-11-30T20:46:36.002Z,3.31
2022-11-30T20:49:38.997Z,3.42
2022-11-30T20:52:42.076Z,3.42
2022-11-30T20:55:50.672Z,3.56
2022-11-30T20:58:54.332Z,3.65
2022-11-30T21:01:58.235Z,3.30
2022-11-30T21:05:01.272Z,3.35
2022-11-30T21:08:05.081Z,3.63
2022-11-30T21:11:19.775Z,3.62
2022-11-30T21:14:22.522Z,3.58
